sensor_id;sensor_type;location;lat;lon;timestamp;P1;durP1;ratioP1;P2;durP2;ratioP2
17228;SDS011;8731;50.364;8.958;2024-02-14T00:00:33;6.20;;;3.33;;
17228;SDS011;8731;50.364;8.958;2024-02-14T00:04:55;4.07;;;2.83;;
17228;SDS011;8731;50.364;8.958;2024-02-14T00:09:19;5.23;;;3.10;;
17228;SDS011;8731;50.364;8.958;2024-02-14T00:13:42;4.43;;;3.37;;
17228;SDS011;8731;50.364;8.958;2024-02-14T00:18:04;6.07;;;3.57;;
17228;SDS011;8731;50.364;8.958;2024-02-14T00:22:26;7.33;;;4.70;;
17228;SDS011;8731;50.364;8.958;2024-02-14T00:26:50;8.70;;;5.57;;
17228;SDS011;8731;50.364;8.958;2024-02-14T00:31:14;7.00;;;3.30;;
17228;SDS011;8731;50.364;8.958;2024-02-14T00:35:36;6.83;;;3.20;;
17228;SDS011;8731;50.364;8.958;2024-02-14T00:39:59;6.00;;;3.20;;
17228;SDS011;8731;50.364;8.958;2024-02-14T00:44:23;4.07;;;2.60;;
17228;SDS011;8731;50.364;8.958;2024-02-14T00:48:45;4.03;;;2.67;;
17228;SDS011;8731;50.364;8.958;2024-02-14T00:53:07;4.63;;;2.50;;
17228;SDS011;8731;50.364;8.958;2024-02-14T00:57:31;6.23;;;2.47;;
17228;SDS011;8731;50.364;8.958;2024-02-14T01:01:55;4.50;;;2.60;;
17228;SDS011;8731;50.364;8.958;2024-02-14T01:06:17;5.67;;;2.70;;
17228;SDS011;8731;50.364;8.958;2024-02-14T01:10:41;4.37;;;2.37;;
17228;SDS011;8731;50.364;8.958;2024-02-14T01:15:07;5.47;;;3.50;;
17228;SDS011;8731;50.364;8.958;2024-02-14T01:19:31;4.50;;;3.10;;
17228;SDS011;8731;50.364;8.958;2024-02-14T01:23:53;5.40;;;2.70;;
17228;SDS011;8731;50.364;8.958;2024-02-14T01:28:17;5.10;;;2.93;;
17228;SDS011;8731;50.364;8.958;2024-02-14T01:32:40;4.93;;;2.60;;
17228;SDS011;8731;50.364;8.958;2024-02-14T01:37:07;5.53;;;2.60;;
17228;SDS011;8731;50.364;8.958;2024-02-14T01:41:30;3.80;;;2.20;;
17228;SDS011;8731;50.364;8.958;2024-02-14T01:45:52;3.73;;;2.70;;
17228;SDS011;8731;50.364;8.958;2024-02-14T01:50:15;4.83;;;2.63;;
17228;SDS011;8731;50.364;8.958;2024-02-14T01:54:45;4.43;;;2.60;;
17228;SDS011;8731;50.364;8.958;2024-02-14T01:59:08;5.03;;;2.33;;
17228;SDS011;8731;50.364;8.958;2024-02-14T02:03:31;5.93;;;2.80;;
17228;SDS011;8731;50.364;8.958;2024-02-14T02:07:56;5.33;;;3.43;;
17228;SDS011;8731;50.364;8.958;2024-02-14T02:12:20;6.57;;;3.40;;
17228;SDS011;8731;50.364;8.958;2024-02-14T02:16:47;6.57;;;3.83;;
17228;SDS011;8731;50.364;8.958;2024-02-14T02:21:10;6.27;;;3.33;;
17228;SDS011;8731;50.364;8.958;2024-02-14T02:25:34;6.33;;;3.80;;
17228;SDS011;8731;50.364;8.958;2024-02-14T02:29:57;5.60;;;3.10;;
17228;SDS011;8731;50.364;8.958;2024-02-14T02:34:21;4.03;;;2.53;;
17228;SDS011;8731;50.364;8.958;2024-02-14T02:38:43;3.60;;;2.10;;
17228;SDS011;8731;50.364;8.958;2024-02-14T02:43:07;3.30;;;2.00;;
17228;SDS011;8731;50.364;8.958;2024-02-14T02:47:30;4.47;;;2.10;;
17228;SDS011;8731;50.364;8.958;2024-02-14T02:51:52;4.87;;;1.83;;
17228;SDS011;8731;50.364;8.958;2024-02-14T02:56:15;2.73;;;1.87;;
17228;SDS011;8731;50.364;8.958;2024-02-14T03:00:39;4.73;;;2.00;;
17228;SDS011;8731;50.364;8.958;2024-02-14T03:05:01;4.20;;;1.87;;
17228;SDS011;8731;50.364;8.958;2024-02-14T03:09:26;3.43;;;1.93;;
17228;SDS011;8731;50.364;8.958;2024-02-14T03:13:49;4.97;;;1.90;;
17228;SDS011;8731;50.364;8.958;2024-02-14T03:18:14;4.37;;;2.10;;
17228;SDS011;8731;50.364;8.958;2024-02-14T03:22:36;5.23;;;2.00;;
17228;SDS011;8731;50.364;8.958;2024-02-14T03:27:02;2.77;;;2.00;;
17228;SDS011;8731;50.364;8.958;2024-02-14T03:31:26;4.03;;;2.07;;
17228;SDS011;8731;50.364;8.958;2024-02-14T03:35:50;3.97;;;1.67;;
17228;SDS011;8731;50.364;8.958;2024-02-14T03:40:12;4.10;;;2.07;;
17228;SDS011;8731;50.364;8.958;2024-02-14T03:44:35;5.27;;;2.00;;
17228;SDS011;8731;50.364;8.958;2024-02-14T03:48:58;3.17;;;1.63;;
17228;SDS011;8731;50.364;8.958;2024-02-14T03:53:22;4.80;;;2.27;;
17228;SDS011;8731;50.364;8.958;2024-02-14T03:57:44;3.33;;;1.90;;
17228;SDS011;8731;50.364;8.958;2024-02-14T04:02:08;3.77;;;1.80;;
17228;SDS011;8731;50.364;8.958;2024-02-14T04:06:30;3.77;;;1.80;;
17228;SDS011;8731;50.364;8.958;2024-02-14T04:10:54;4.03;;;2.13;;
17228;SDS011;8731;50.364;8.958;2024-02-14T04:15:16;4.13;;;2.07;;
17228;SDS011;8731;50.364;8.958;2024-02-14T04:19:39;6.70;;;2.20;;
17228;SDS011;8731;50.364;8.958;2024-02-14T04:24:01;7.03;;;1.97;;
17228;SDS011;8731;50.364;8.958;2024-02-14T04:28:25;4.23;;;1.73;;
17228;SDS011;8731;50.364;8.958;2024-02-14T04:32:48;2.87;;;1.87;;
17228;SDS011;8731;50.364;8.958;2024-02-14T04:37:11;4.07;;;1.80;;
17228;SDS011;8731;50.364;8.958;2024-02-14T04:41:37;2.37;;;1.37;;
17228;SDS011;8731;50.364;8.958;2024-02-14T04:46:00;5.67;;;2.03;;
17228;SDS011;8731;50.364;8.958;2024-02-14T04:50:26;5.57;;;2.27;;
17228;SDS011;8731;50.364;8.958;2024-02-14T04:54:51;4.80;;;1.90;;
17228;SDS011;8731;50.364;8.958;2024-02-14T04:59:13;4.23;;;2.30;;
17228;SDS011;8731;50.364;8.958;2024-02-14T05:03:37;3.97;;;2.23;;
17228;SDS011;8731;50.364;8.958;2024-02-14T05:07:59;3.77;;;2.17;;
17228;SDS011;8731;50.364;8.958;2024-02-14T05:12:22;4.70;;;2.13;;
17228;SDS011;8731;50.364;8.958;2024-02-14T05:16:45;6.23;;;2.20;;
17228;SDS011;8731;50.364;8.958;2024-02-14T05:21:10;5.07;;;2.10;;
17228;SDS011;8731;50.364;8.958;2024-02-14T05:25:33;5.03;;;2.33;;
17228;SDS011;8731;50.364;8.958;2024-02-14T05:29:55;3.47;;;2.10;;
17228;SDS011;8731;50.364;8.958;2024-02-14T05:34:18;7.10;;;3.33;;
17228;SDS011;8731;50.364;8.958;2024-02-14T05:38:41;7.57;;;3.10;;
17228;SDS011;8731;50.364;8.958;2024-02-14T05:43:04;4.10;;;2.27;;
17228;SDS011;8731;50.364;8.958;2024-02-14T05:47:28;6.00;;;2.20;;
17228;SDS011;8731;50.364;8.958;2024-02-14T05:51:51;3.90;;;2.20;;
17228;SDS011;8731;50.364;8.958;2024-02-14T05:56:16;4.83;;;2.77;;
17228;SDS011;8731;50.364;8.958;2024-02-14T06:00:40;8.23;;;2.80;;
17228;SDS011;8731;50.364;8.958;2024-02-14T06:05:03;6.17;;;3.10;;
17228;SDS011;8731;50.364;8.958;2024-02-14T06:09:29;7.97;;;2.70;;
17228;SDS011;8731;50.364;8.958;2024-02-14T06:13:53;6.03;;;2.80;;
17228;SDS011;8731;50.364;8.958;2024-02-14T06:18:16;5.97;;;3.23;;
17228;SDS011;8731;50.364;8.958;2024-02-14T06:22:39;5.50;;;2.83;;
17228;SDS011;8731;50.364;8.958;2024-02-14T06:27:03;3.73;;;2.43;;
17228;SDS011;8731;50.364;8.958;2024-02-14T06:31:27;6.47;;;3.03;;
17228;SDS011;8731;50.364;8.958;2024-02-14T06:35:50;5.33;;;3.40;;
17228;SDS011;8731;50.364;8.958;2024-02-14T06:40:12;6.33;;;2.77;;
17228;SDS011;8731;50.364;8.958;2024-02-14T06:44:36;8.67;;;2.73;;
17228;SDS011;8731;50.364;8.958;2024-02-14T06:49:00;4.57;;;2.40;;
17228;SDS011;8731;50.364;8.958;2024-02-14T06:53:22;8.23;;;2.80;;
17228;SDS011;8731;50.364;8.958;2024-02-14T06:57:45;6.77;;;2.63;;
17228;SDS011;8731;50.364;8.958;2024-02-14T07:02:07;5.50;;;2.57;;
17228;SDS011;8731;50.364;8.958;2024-02-14T07:06:31;4.97;;;2.83;;
17228;SDS011;8731;50.364;8.958;2024-02-14T07:10:54;6.03;;;2.83;;
17228;SDS011;8731;50.364;8.958;2024-02-14T07:15:16;4.13;;;2.90;;
17228;SDS011;8731;50.364;8.958;2024-02-14T07:19:39;5.43;;;2.90;;
17228;SDS011;8731;50.364;8.958;2024-02-14T07:24:07;5.37;;;2.60;;
17228;SDS011;8731;50.364;8.958;2024-02-14T07:28:30;9.70;;;2.90;;
17228;SDS011;8731;50.364;8.958;2024-02-14T07:32:53;5.70;;;2.60;;
17228;SDS011;8731;50.364;8.958;2024-02-14T07:37:16;5.43;;;2.33;;
17228;SDS011;8731;50.364;8.958;2024-02-14T07:41:41;6.90;;;2.50;;
17228;SDS011;8731;50.364;8.958;2024-02-14T07:46:03;6.13;;;2.40;;
17228;SDS011;8731;50.364;8.958;2024-02-14T07:50:27;6.87;;;3.13;;
17228;SDS011;8731;50.364;8.958;2024-02-14T07:54:51;3.80;;;2.50;;
17228;SDS011;8731;50.364;8.958;2024-02-14T07:59:16;4.53;;;2.67;;
17228;SDS011;8731;50.364;8.958;2024-02-14T08:03:40;7.67;;;3.20;;
17228;SDS011;8731;50.364;8.958;2024-02-14T08:08:03;5.43;;;2.63;;
17228;SDS011;8731;50.364;8.958;2024-02-14T08:12:26;7.67;;;2.93;;
17228;SDS011;8731;50.364;8.958;2024-02-14T08:16:49;3.37;;;2.00;;
17228;SDS011;8731;50.364;8.958;2024-02-14T08:21:12;4.53;;;2.70;;
17228;SDS011;8731;50.364;8.958;2024-02-14T08:25:34;8.13;;;2.90;;
17228;SDS011;8731;50.364;8.958;2024-02-14T08:29:57;8.07;;;2.77;;
17228;SDS011;8731;50.364;8.958;2024-02-14T08:34:21;6.30;;;3.13;;
17228;SDS011;8731;50.364;8.958;2024-02-14T08:38:44;7.50;;;3.13;;
17228;SDS011;8731;50.364;8.958;2024-02-14T08:43:06;4.47;;;2.67;;
17228;SDS011;8731;50.364;8.958;2024-02-14T08:47:29;7.03;;;3.40;;
17228;SDS011;8731;50.364;8.958;2024-02-14T08:51:52;3.90;;;2.80;;
17228;SDS011;8731;50.364;8.958;2024-02-14T08:56:15;7.60;;;2.87;;
17228;SDS011;8731;50.364;8.958;2024-02-14T09:00:38;4.37;;;2.63;;
17228;SDS011;8731;50.364;8.958;2024-02-14T09:05:01;4.50;;;2.27;;
17228;SDS011;8731;50.364;8.958;2024-02-14T09:09:27;9.30;;;3.87;;
17228;SDS011;8731;50.364;8.958;2024-02-14T09:13:49;5.97;;;2.97;;
17228;SDS011;8731;50.364;8.958;2024-02-14T09:18:16;4.43;;;2.63;;
17228;SDS011;8731;50.364;8.958;2024-02-14T09:22:39;4.80;;;2.63;;
17228;SDS011;8731;50.364;8.958;2024-02-14T09:27:04;7.67;;;3.77;;
17228;SDS011;8731;50.364;8.958;2024-02-14T09:31:26;7.60;;;2.90;;
17228;SDS011;8731;50.364;8.958;2024-02-14T09:35:49;5.27;;;2.93;;
17228;SDS011;8731;50.364;8.958;2024-02-14T09:40:12;4.63;;;3.13;;
17228;SDS011;8731;50.364;8.958;2024-02-14T09:44:37;5.00;;;2.93;;
17228;SDS011;8731;50.364;8.958;2024-02-14T09:49:00;5.27;;;3.00;;
17228;SDS011;8731;50.364;8.958;2024-02-14T09:53:27;6.10;;;3.60;;
17228;SDS011;8731;50.364;8.958;2024-02-14T09:57:52;3.60;;;2.53;;
17228;SDS011;8731;50.364;8.958;2024-02-14T10:02:20;5.83;;;3.10;;
17228;SDS011;8731;50.364;8.958;2024-02-14T10:06:42;5.53;;;2.73;;
17228;SDS011;8731;50.364;8.958;2024-02-14T10:11:05;6.07;;;2.93;;
17228;SDS011;8731;50.364;8.958;2024-02-14T10:15:31;5.80;;;3.07;;
17228;SDS011;8731;50.364;8.958;2024-02-14T10:19:58;5.07;;;2.80;;
17228;SDS011;8731;50.364;8.958;2024-02-14T10:24:25;5.30;;;2.83;;
17228;SDS011;8731;50.364;8.958;2024-02-14T10:28:47;4.03;;;3.17;;
17228;SDS011;8731;50.364;8.958;2024-02-14T10:33:11;7.37;;;3.43;;
17228;SDS011;8731;50.364;8.958;2024-02-14T10:37:37;4.63;;;2.43;;
17228;SDS011;8731;50.364;8.958;2024-02-14T10:42:00;5.23;;;2.90;;
17228;SDS011;8731;50.364;8.958;2024-02-14T10:46:23;9.57;;;4.10;;
17228;SDS011;8731;50.364;8.958;2024-02-14T10:50:52;5.47;;;3.50;;
17228;SDS011;8731;50.364;8.958;2024-02-14T10:55:18;9.67;;;4.23;;
17228;SDS011;8731;50.364;8.958;2024-02-14T10:59:46;5.80;;;3.23;;
17228;SDS011;8731;50.364;8.958;2024-02-14T11:04:10;8.33;;;3.90;;
17228;SDS011;8731;50.364;8.958;2024-02-14T11:08:33;7.23;;;2.87;;
17228;SDS011;8731;50.364;8.958;2024-02-14T11:12:58;4.93;;;3.00;;
17228;SDS011;8731;50.364;8.958;2024-02-14T11:17:23;6.03;;;2.83;;
17228;SDS011;8731;50.364;8.958;2024-02-14T11:21:46;5.07;;;2.50;;
17228;SDS011;8731;50.364;8.958;2024-02-14T11:26:14;5.70;;;2.87;;
17228;SDS011;8731;50.364;8.958;2024-02-14T11:30:39;5.97;;;3.20;;
17228;SDS011;8731;50.364;8.958;2024-02-14T11:35:04;4.73;;;2.70;;
17228;SDS011;8731;50.364;8.958;2024-02-14T11:39:27;4.77;;;2.77;;
17228;SDS011;8731;50.364;8.958;2024-02-14T11:43:51;3.63;;;2.30;;
17228;SDS011;8731;50.364;8.958;2024-02-14T11:48:15;6.93;;;2.73;;
17228;SDS011;8731;50.364;8.958;2024-02-14T11:52:39;4.50;;;2.90;;
17228;SDS011;8731;50.364;8.958;2024-02-14T11:57:02;4.83;;;2.70;;
17228;SDS011;8731;50.364;8.958;2024-02-14T12:01:24;5.47;;;2.77;;
17228;SDS011;8731;50.364;8.958;2024-02-14T12:05:50;7.03;;;3.00;;
17228;SDS011;8731;50.364;8.958;2024-02-14T12:10:14;4.67;;;2.93;;
17228;SDS011;8731;50.364;8.958;2024-02-14T12:14:37;3.80;;;2.40;;
17228;SDS011;8731;50.364;8.958;2024-02-14T12:19:03;6.87;;;2.50;;
17228;SDS011;8731;50.364;8.958;2024-02-14T12:23:29;4.63;;;2.30;;
17228;SDS011;8731;50.364;8.958;2024-02-14T12:27:52;4.13;;;2.20;;
17228;SDS011;8731;50.364;8.958;2024-02-14T12:32:15;3.60;;;1.87;;
17228;SDS011;8731;50.364;8.958;2024-02-14T12:36:38;5.70;;;1.90;;
17228;SDS011;8731;50.364;8.958;2024-02-14T12:41:02;4.13;;;2.53;;
17228;SDS011;8731;50.364;8.958;2024-02-14T12:45:25;6.23;;;3.23;;
17228;SDS011;8731;50.364;8.958;2024-02-14T12:49:47;5.10;;;2.93;;
17228;SDS011;8731;50.364;8.958;2024-02-14T12:54:13;3.57;;;1.97;;
17228;SDS011;8731;50.364;8.958;2024-02-14T12:58:37;5.07;;;2.70;;
17228;SDS011;8731;50.364;8.958;2024-02-14T13:03:00;3.40;;;2.03;;
17228;SDS011;8731;50.364;8.958;2024-02-14T13:07:23;4.63;;;2.40;;
17228;SDS011;8731;50.364;8.958;2024-02-14T13:11:46;3.90;;;3.07;;
17228;SDS011;8731;50.364;8.958;2024-02-14T13:16:10;6.73;;;3.83;;
17228;SDS011;8731;50.364;8.958;2024-02-14T13:20:32;3.73;;;2.43;;
17228;SDS011;8731;50.364;8.958;2024-02-14T13:24:55;3.77;;;2.20;;
17228;SDS011;8731;50.364;8.958;2024-02-14T13:29:18;5.53;;;2.47;;
17228;SDS011;8731;50.364;8.958;2024-02-14T13:33:42;3.90;;;2.57;;
17228;SDS011;8731;50.364;8.958;2024-02-14T13:38:05;3.33;;;2.27;;
17228;SDS011;8731;50.364;8.958;2024-02-14T13:42:29;4.17;;;2.50;;
17228;SDS011;8731;50.364;8.958;2024-02-14T13:46:52;4.23;;;3.17;;
17228;SDS011;8731;50.364;8.958;2024-02-14T13:51:16;2.80;;;2.00;;
17228;SDS011;8731;50.364;8.958;2024-02-14T13:55:38;4.73;;;2.20;;
17228;SDS011;8731;50.364;8.958;2024-02-14T14:00:00;4.20;;;2.30;;
17228;SDS011;8731;50.364;8.958;2024-02-14T14:04:32;2.80;;;2.50;;
17228;SDS011;8731;50.364;8.958;2024-02-14T14:08:57;4.23;;;2.90;;
17228;SDS011;8731;50.364;8.958;2024-02-14T14:13:20;3.37;;;2.23;;
17228;SDS011;8731;50.364;8.958;2024-02-14T14:17:42;3.37;;;2.17;;
17228;SDS011;8731;50.364;8.958;2024-02-14T14:22:05;2.90;;;2.23;;
17228;SDS011;8731;50.364;8.958;2024-02-14T14:26:30;4.37;;;2.60;;
17228;SDS011;8731;50.364;8.958;2024-02-14T14:30:52;3.90;;;2.47;;
17228;SDS011;8731;50.364;8.958;2024-02-14T14:35:15;4.13;;;2.30;;
17228;SDS011;8731;50.364;8.958;2024-02-14T14:39:38;3.43;;;2.20;;
17228;SDS011;8731;50.364;8.958;2024-02-14T14:44:03;4.53;;;2.50;;
17228;SDS011;8731;50.364;8.958;2024-02-14T14:48:26;3.40;;;2.23;;
17228;SDS011;8731;50.364;8.958;2024-02-14T14:52:48;4.37;;;2.30;;
17228;SDS011;8731;50.364;8.958;2024-02-14T14:57:11;4.63;;;2.53;;
17228;SDS011;8731;50.364;8.958;2024-02-14T15:01:36;2.60;;;1.77;;
17228;SDS011;8731;50.364;8.958;2024-02-14T15:05:59;3.93;;;2.43;;
17228;SDS011;8731;50.364;8.958;2024-02-14T15:10:21;4.53;;;2.33;;
17228;SDS011;8731;50.364;8.958;2024-02-14T15:14:44;4.63;;;2.67;;
17228;SDS011;8731;50.364;8.958;2024-02-14T15:19:08;4.10;;;2.40;;
17228;SDS011;8731;50.364;8.958;2024-02-14T15:23:30;4.87;;;2.33;;
17228;SDS011;8731;50.364;8.958;2024-02-14T15:27:52;6.17;;;3.77;;
17228;SDS011;8731;50.364;8.958;2024-02-14T15:32:15;6.10;;;3.10;;
17228;SDS011;8731;50.364;8.958;2024-02-14T15:36:57;4.60;;;3.43;;
17228;SDS011;8731;50.364;8.958;2024-02-14T15:41:20;5.07;;;3.40;;
17228;SDS011;8731;50.364;8.958;2024-02-14T15:45:42;6.07;;;3.97;;
17228;SDS011;8731;50.364;8.958;2024-02-14T15:50:05;6.53;;;4.00;;
17228;SDS011;8731;50.364;8.958;2024-02-14T15:54:29;5.60;;;4.23;;
17228;SDS011;8731;50.364;8.958;2024-02-14T15:58:52;5.13;;;3.70;;
17228;SDS011;8731;50.364;8.958;2024-02-14T16:03:14;6.27;;;4.63;;
17228;SDS011;8731;50.364;8.958;2024-02-14T16:07:37;5.70;;;4.30;;
17228;SDS011;8731;50.364;8.958;2024-02-14T16:12:02;7.47;;;3.90;;
17228;SDS011;8731;50.364;8.958;2024-02-14T16:16:27;5.57;;;3.90;;
17228;SDS011;8731;50.364;8.958;2024-02-14T16:20:51;6.00;;;4.87;;
17228;SDS011;8731;50.364;8.958;2024-02-14T16:25:14;4.73;;;3.90;;
17228;SDS011;8731;50.364;8.958;2024-02-14T16:29:38;4.40;;;3.40;;
17228;SDS011;8731;50.364;8.958;2024-02-14T16:34:00;7.40;;;3.57;;
17228;SDS011;8731;50.364;8.958;2024-02-14T16:38:23;4.20;;;3.77;;
17228;SDS011;8731;50.364;8.958;2024-02-14T16:42:45;5.20;;;4.27;;
17228;SDS011;8731;50.364;8.958;2024-02-14T16:47:10;5.07;;;4.57;;
17228;SDS011;8731;50.364;8.958;2024-02-14T16:51:33;6.53;;;4.93;;
17228;SDS011;8731;50.364;8.958;2024-02-14T16:55:55;6.30;;;4.20;;
17228;SDS011;8731;50.364;8.958;2024-02-14T17:00:20;5.87;;;3.80;;
17228;SDS011;8731;50.364;8.958;2024-02-14T17:04:44;4.60;;;3.37;;
17228;SDS011;8731;50.364;8.958;2024-02-14T17:09:06;4.53;;;3.20;;
17228;SDS011;8731;50.364;8.958;2024-02-14T17:13:29;9.33;;;5.60;;
17228;SDS011;8731;50.364;8.958;2024-02-14T17:17:51;5.03;;;3.10;;
17228;SDS011;8731;50.364;8.958;2024-02-14T17:22:15;3.67;;;2.93;;
17228;SDS011;8731;50.364;8.958;2024-02-14T17:26:38;4.00;;;3.40;;
17228;SDS011;8731;50.364;8.958;2024-02-14T17:31:02;4.60;;;3.90;;
17228;SDS011;8731;50.364;8.958;2024-02-14T17:35:24;6.10;;;4.50;;
17228;SDS011;8731;50.364;8.958;2024-02-14T17:39:48;4.10;;;3.60;;
17228;SDS011;8731;50.364;8.958;2024-02-14T17:44:11;5.63;;;3.87;;
17228;SDS011;8731;50.364;8.958;2024-02-14T17:48:34;5.20;;;4.70;;
17228;SDS011;8731;50.364;8.958;2024-02-14T17:52:57;7.63;;;5.50;;
17228;SDS011;8731;50.364;8.958;2024-02-14T17:57:21;6.80;;;5.37;;
17228;SDS011;8731;50.364;8.958;2024-02-14T18:01:45;8.17;;;7.20;;
17228;SDS011;8731;50.364;8.958;2024-02-14T18:06:09;7.90;;;7.10;;
17228;SDS011;8731;50.364;8.958;2024-02-14T18:10:33;6.17;;;4.80;;
17228;SDS011;8731;50.364;8.958;2024-02-14T18:14:58;8.23;;;5.73;;
17228;SDS011;8731;50.364;8.958;2024-02-14T18:19:20;7.33;;;5.37;;
17228;SDS011;8731;50.364;8.958;2024-02-14T18:23:43;7.37;;;5.90;;
17228;SDS011;8731;50.364;8.958;2024-02-14T18:28:06;7.00;;;5.90;;
17228;SDS011;8731;50.364;8.958;2024-02-14T18:32:30;6.50;;;5.30;;
17228;SDS011;8731;50.364;8.958;2024-02-14T18:36:52;7.93;;;7.13;;
17228;SDS011;8731;50.364;8.958;2024-02-14T18:41:15;7.73;;;6.80;;
17228;SDS011;8731;50.364;8.958;2024-02-14T18:45:38;7.07;;;6.47;;
17228;SDS011;8731;50.364;8.958;2024-02-14T18:50:02;6.97;;;6.27;;
17228;SDS011;8731;50.364;8.958;2024-02-14T18:54:25;7.17;;;6.47;;
17228;SDS011;8731;50.364;8.958;2024-02-14T18:58:50;6.93;;;6.33;;
17228;SDS011;8731;50.364;8.958;2024-02-14T19:03:12;8.40;;;7.23;;
17228;SDS011;8731;50.364;8.958;2024-02-14T19:07:38;8.40;;;7.53;;
17228;SDS011;8731;50.364;8.958;2024-02-14T19:12:01;9.50;;;8.63;;
17228;SDS011;8731;50.364;8.958;2024-02-14T19:16:24;8.67;;;7.87;;
17228;SDS011;8731;50.364;8.958;2024-02-14T19:20:47;9.97;;;8.90;;
17228;SDS011;8731;50.364;8.958;2024-02-14T19:25:13;12.57;;;10.07;;
17228;SDS011;8731;50.364;8.958;2024-02-14T19:29:36;10.90;;;9.90;;
17228;SDS011;8731;50.364;8.958;2024-02-14T19:33:58;9.23;;;8.40;;
17228;SDS011;8731;50.364;8.958;2024-02-14T19:38:21;10.23;;;9.23;;
17228;SDS011;8731;50.364;8.958;2024-02-14T19:42:46;10.33;;;9.23;;
17228;SDS011;8731;50.364;8.958;2024-02-14T19:47:09;12.80;;;10.60;;
17228;SDS011;8731;50.364;8.958;2024-02-14T19:51:32;8.83;;;8.10;;
17228;SDS011;8731;50.364;8.958;2024-02-14T19:55:54;8.43;;;7.30;;
17228;SDS011;8731;50.364;8.958;2024-02-14T20:00:20;11.03;;;7.70;;
17228;SDS011;8731;50.364;8.958;2024-02-14T20:04:43;9.33;;;8.43;;
17228;SDS011;8731;50.364;8.958;2024-02-14T20:09:06;10.30;;;8.33;;
17228;SDS011;8731;50.364;8.958;2024-02-14T20:13:32;8.50;;;7.70;;
17228;SDS011;8731;50.364;8.958;2024-02-14T20:18:01;11.60;;;10.40;;
17228;SDS011;8731;50.364;8.958;2024-02-14T20:22:25;11.57;;;10.47;;
17228;SDS011;8731;50.364;8.958;2024-02-14T20:26:49;10.13;;;9.13;;
17228;SDS011;8731;50.364;8.958;2024-02-14T20:31:11;8.60;;;7.80;;
17228;SDS011;8731;50.364;8.958;2024-02-14T20:35:35;8.53;;;7.70;;
17228;SDS011;8731;50.364;8.958;2024-02-14T20:39:57;10.23;;;9.03;;
17228;SDS011;8731;50.364;8.958;2024-02-14T20:44:20;9.57;;;8.60;;
17228;SDS011;8731;50.364;8.958;2024-02-14T20:48:45;9.93;;;8.93;;
17228;SDS011;8731;50.364;8.958;2024-02-14T20:53:09;9.37;;;7.90;;
17228;SDS011;8731;50.364;8.958;2024-02-14T20:57:31;9.30;;;8.03;;
17228;SDS011;8731;50.364;8.958;2024-02-14T21:01:54;8.33;;;7.53;;
17228;SDS011;8731;50.364;8.958;2024-02-14T21:06:16;9.43;;;8.17;;
17228;SDS011;8731;50.364;8.958;2024-02-14T21:10:40;9.00;;;8.10;;
17228;SDS011;8731;50.364;8.958;2024-02-14T21:15:03;8.83;;;7.93;;
17228;SDS011;8731;50.364;8.958;2024-02-14T21:19:26;9.43;;;8.63;;
17228;SDS011;8731;50.364;8.958;2024-02-14T21:23:48;9.10;;;8.30;;
17228;SDS011;8731;50.364;8.958;2024-02-14T21:28:12;10.67;;;9.67;;
17228;SDS011;8731;50.364;8.958;2024-02-14T21:32:34;10.37;;;8.40;;
17228;SDS011;8731;50.364;8.958;2024-02-14T21:36:57;9.40;;;8.40;;
17228;SDS011;8731;50.364;8.958;2024-02-14T21:41:21;9.57;;;8.73;;
17228;SDS011;8731;50.364;8.958;2024-02-14T21:45:45;9.20;;;8.30;;
17228;SDS011;8731;50.364;8.958;2024-02-14T21:50:07;8.60;;;7.80;;
17228;SDS011;8731;50.364;8.958;2024-02-14T21:54:30;12.67;;;11.47;;
17228;SDS011;8731;50.364;8.958;2024-02-14T21:58:53;12.30;;;11.10;;
17228;SDS011;8731;50.364;8.958;2024-02-14T22:03:17;10.33;;;9.33;;
17228;SDS011;8731;50.364;8.958;2024-02-14T22:07:39;10.43;;;9.33;;
17228;SDS011;8731;50.364;8.958;2024-02-14T22:12:02;11.60;;;10.50;;
17228;SDS011;8731;50.364;8.958;2024-02-14T22:16:26;13.30;;;11.60;;
17228;SDS011;8731;50.364;8.958;2024-02-14T22:20:50;12.20;;;10.40;;
17228;SDS011;8731;50.364;8.958;2024-02-14T22:25:13;11.33;;;10.17;;
17228;SDS011;8731;50.364;8.958;2024-02-14T22:29:35;13.27;;;11.77;;
17228;SDS011;8731;50.364;8.958;2024-02-14T22:33:58;16.33;;;13.63;;
17228;SDS011;8731;50.364;8.958;2024-02-14T22:38:22;15.03;;;13.53;;
17228;SDS011;8731;50.364;8.958;2024-02-14T22:42:44;14.03;;;12.53;;
17228;SDS011;8731;50.364;8.958;2024-02-14T22:47:07;13.47;;;12.17;;
17228;SDS011;8731;50.364;8.958;2024-02-14T22:51:29;14.47;;;12.20;;
17228;SDS011;8731;50.364;8.958;2024-02-14T22:55:53;14.10;;;12.53;;
17228;SDS011;8731;50.364;8.958;2024-02-14T23:00:16;14.23;;;12.63;;
17228;SDS011;8731;50.364;8.958;2024-02-14T23:04:42;13.57;;;12.27;;
17228;SDS011;8731;50.364;8.958;2024-02-14T23:09:05;15.03;;;13.43;;
17228;SDS011;8731;50.364;8.958;2024-02-14T23:13:31;15.87;;;14.27;;
17228;SDS011;8731;50.364;8.958;2024-02-14T23:17:53;16.97;;;13.97;;
17228;SDS011;8731;50.364;8.958;2024-02-14T23:22:17;15.73;;;14.23;;
17228;SDS011;8731;50.364;8.958;2024-02-14T23:26:39;15.40;;;13.87;;
17228;SDS011;8731;50.364;8.958;2024-02-14T23:31:05;15.10;;;13.63;;
17228;SDS011;8731;50.364;8.958;2024-02-14T23:35:27;16.40;;;14.60;;
17228;SDS011;8731;50.364;8.958;2024-02-14T23:39:50;13.93;;;12.63;;
17228;SDS011;8731;50.364;8.958;2024-02-14T23:44:12;16.13;;;14.57;;
17228;SDS011;8731;50.364;8.958;2024-02-14T23:48:36;16.03;;;14.43;;
17228;SDS011;8731;50.364;8.958;2024-02-14T23:52:58;15.27;;;13.43;;
17228;SDS011;8731;50.364;8.958;2024-02-14T23:57:21;16.30;;;13.27;;
